CheckWX is a tool to help pilots better visualize weather data.  It is not intended as a substitute for an official pre-flight weather briefing.

19:56:15 UTC

KMNE METAR
Minden Airport
Minden, Louisiana, USA
Current

21 mins ago

KMNE 221935Z AUTO 00000KT 5SM BR BKN004 BKN007 OVC021 19/18 A2993 RMK AO2 T01870180
Observed
Nov-22 @ 19:35 UTC
Visibility
5 SM
Flight Rules
LIFR
Conditions
Mist
Cloud Levels
  • Broken at 400' AGL
  • Broken at 700' AGL
  • Overcast at 2,100' AGL
Temperature
19°C / 66°F
Dewpoint
18°C / 64°F
Humidity
94%
Altimeter
29.93" Hg
Pressure
1013.52 hPa
Previous

41 mins ago

KMNE 221915Z AUTO 32005KT 4SM -DZ BKN004 BKN014 OVC021 19/18 A2994 RMK AO2 T01880180
Observed
Nov-22 @ 19:15 UTC
Wind
  • 320° at 5 KTS
Visibility
4 SM
Flight Rules
LIFR
Conditions
Light Drizzle
Cloud Levels
  • Broken at 400' AGL
  • Broken at 1,400' AGL
  • Overcast at 2,100' AGL
Temperature
19°C / 66°F
Dewpoint
18°C / 64°F
Humidity
94%
Altimeter
29.94" Hg
Pressure
1013.92 hPa
Previous

1 hour ago

KMNE 221855Z AUTO 28009KT 1 3/4SM DZ OVC004 20/19 A2994 RMK AO2 P0004 T01950186
Observed
Nov-22 @ 18:55 UTC
Wind
  • 280° at 9 KTS
Visibility
1 3/4 SM
Flight Rules
LIFR
Conditions
Drizzle
Cloud Levels
  • Overcast at 400' AGL
Temperature
20°C / 68°F
Dewpoint
19°C / 66°F
Humidity
94%
Altimeter
29.94" Hg
Pressure
1013.92 hPa
Current Rain
0.04"